| time (UTC) | temp C | wind direction | speed KPH | gust KPH | rain 1hr cm | rain 24hr cm | rain mn cm | humidity % | barometer mb |
| 20260505162705 | 19 | 28 | 0.0 | 3.2 | 0.20 | 0.46 | 0.46 | 93 | 1008.4 |
| 20260505161807 | 20 | 328 | 0.0 | 1.6 | 0.18 | 0.43 | 0.43 | 92 | 1008.3 |
| 20260505160903 | 20 | 290 | 0.0 | 3.2 | 0.13 | 0.38 | 0.38 | 92 | 1008.5 |
| 20260505152705 | 20 | 348 | 0.0 | 3.2 | 0.05 | 0.25 | 0.25 | 93 | 1008.7 |
| 20260505151803 | 20 | 305 | 0.0 | 1.6 | 0.08 | 0.25 | 0.25 | 93 | 1008.2 |
| 20260505150903 | 20 | 304 | 0.0 | 1.6 | 0.10 | 0.25 | 0.25 | 93 | 1008.1 |
| 20260505150218 | 20 | 306 | 0.0 | 4.8 | 0.10 | 0.25 | 0.25 | 93 | 1008.2 |
| 20260505124505 | 22 | 0 | 0.0 | 0.0 | 0.00 | 0.03 | 0.03 | 84 | 1008.1 |
| 20260505123820 | 22 | 102 | 0.0 | 3.2 | 0.00 | 0.03 | 0.03 | 83 | 1007.9 |
| 20260505122703 | 22 | 0 | 0.0 | 0.0 | 0.00 | 0.03 | 0.03 | 81 | 1008.0 |
| 20260505121803 | 22 | 0 | 0.0 | 0.0 | 0.00 | 0.03 | 0.03 | 79 | 1008.3 |
| 20260505120905 | 22 | 0 | 0.0 | 0.0 | 0.00 | 0.03 | 0.03 | 78 | 1008.2 |
| 20260505120005 | 22 | 0 | 0.0 | 0.0 | 0.00 | 0.03 | 0.03 | 78 | 1008.6 |
| 20260505115405 | 22 | 276 | 0.0 | 1.6 | 0.00 | 0.03 | 0.03 | 78 | 1008.6 |
| 20260505114503 | 22 | 356 | 0.0 | 1.6 | 0.00 | 0.03 | 0.03 | 79 | 1008.6 |
| 20260505113603 | 22 | 358 | 0.0 | 1.6 | 0.00 | 0.03 | 0.03 | 77 | 1008.8 |
| 20260505112703 | 23 | 341 | 0.0 | 3.2 | 0.00 | 0.03 | 0.03 | 77 | 1009.4 |
| 20260505111804 | 23 | 315 | 0.0 | 1.6 | 0.00 | 0.03 | 0.03 | 75 | 1008.9 |
| 20260505110905 | 23 | 313 | 0.0 | 1.6 | 0.00 | 0.03 | 0.03 | 75 | 1009.3 |
| 20260505101804 | 24 | 76 | 1.6 | 6.4 | 0.00 | 0.03 | 0.03 | 73 | 1009.5 |
| 20260505100903 | 24 | 334 | 1.6 | 11.3 | 0.00 | 0.03 | 0.03 | 73 | 1009.6 |
| 20260505100004 | 25 | 320 | 1.6 | 4.8 | 0.00 | 0.03 | 0.03 | 70 | 1009.4 |
| 20260505095618 | 25 | 332 | 1.6 | 4.8 | 0.00 | 0.03 | 0.03 | 71 | 1009.5 |
| 20260505094721 | 24 | 317 | 3.2 | 11.3 | 0.00 | 0.03 | 0.03 | 72 | 1010.0 |
| 20260505093604 | 24 | 266 | 3.2 | 11.3 | 0.00 | 0.03 | 0.03 | 74 | 1010.0 |
| 20260505092705 | 24 | 322 | 1.6 | 11.3 | 0.00 | 0.03 | 0.03 | 72 | 1010.3 |
| 20260505091804 | 23 | 330 | 1.6 | 11.3 | 0.00 | 0.03 | 0.03 | 73 | 1010.6 |
| 20260505090904 | 23 | 7 | 1.6 | 6.4 | 0.00 | 0.03 | 0.03 | 74 | 1010.4 |
| 20260505090007 | 23 | 356 | 1.6 | 6.4 | 0.00 | 0.03 | 0.03 | 74 | 1010.4 |
| 20260505085405 | 23 | 340 | 1.6 | 6.4 | 0.00 | 0.03 | 0.03 | 74 | 1010.6 |
| 20260505084505 | 22 | 250 | 1.6 | 4.8 | 0.00 | 0.03 | 0.03 | 75 | 1011.0 |
| 20260505083605 | 23 | 351 | 1.6 | 9.7 | 0.00 | 0.03 | 0.03 | 74 | 1010.6 |
| 20260505082705 | 23 | 221 | 1.6 | 11.3 | 0.00 | 0.03 | 0.03 | 75 | 1010.7 |
| 20260505081805 | 23 | 279 | 1.6 | 9.7 | 0.00 | 0.03 | 0.03 | 74 | 1011.0 |
| 20260505080904 | 23 | 334 | 1.6 | 9.7 | 0.00 | 0.03 | 0.03 | 73 | 1011.1 |
| 20260505080006 | 23 | 279 | 1.6 | 9.7 | 0.00 | 0.03 | 0.03 | 71 | 1011.3 |
| 20260505075405 | 23 | 309 | 1.6 | 6.4 | 0.00 | 0.03 | 0.03 | 71 | 1011.2 |
| 20260505074503 | 22 | 346 | 1.6 | 6.4 | 0.00 | 0.03 | 0.03 | 73 | 1011.3 |
| 20260505073820 | 21 | 322 | 0.0 | 4.8 | 0.00 | 0.03 | 0.03 | 76 | 1011.0 |
| 20260505072705 | 21 | 324 | 0.0 | 3.2 | 0.00 | 0.03 | 0.03 | 77 | 1011.0 |
| 20260505071805 | 21 | 8 | 0.0 | 3.2 | 0.03 | 0.03 | 0.03 | 78 | 1011.3 |
| 20260505070903 | 21 | 339 | 1.6 | 6.4 | 0.03 | 0.03 | 0.03 | 79 | 1010.7 |
| 20260505070219 | 20 | 349 | 0.0 | 3.2 | 0.03 | 0.03 | 0.03 | 79 | 1010.7 |
| 20260505065405 | 20 | 337 | 0.0 | 3.2 | 0.03 | 0.03 | 0.03 | 79 | 1010.8 |
| 20260505064505 | 20 | 339 | 0.0 | 3.2 | 0.03 | 0.03 | 0.03 | 80 | 1010.7 |
| 20260505063605 | 20 | 340 | 0.0 | 3.2 | 0.03 | 0.03 | 0.03 | 80 | 1010.6 |
| 20260505062707 | 20 | 351 | 0.0 | 4.8 | 0.03 | 0.03 | 0.03 | 79 | 1010.3 |
| 20260505061805 | 20 | 345 | 1.6 | 4.8 | 0.00 | 0.00 | 0.00 | 77 | 1010.7 |
| 20260505060905 | 20 | 352 | 1.6 | 9.7 | 0.00 | 0.00 | 0.00 | 74 | 1010.6 |
| 20260505060004 | 21 | 354 | 1.6 | 9.7 | 0.00 | 0.00 | 0.00 | 74 | 1010.5 |
| 20260505055404 | 21 | 345 | 1.6 | 6.4 | 0.00 | 0.00 | 0.00 | 73 | 1010.7 |
| 20260505054720 | 21 | 335 | 0.0 | 3.2 | 0.00 | 0.00 | 0.00 | 75 | 1011.1 |
| 20260505053605 | 20 | 16 | 1.6 | 6.4 | 0.00 | 0.00 | 0.00 | 74 | 1010.3 |
| 20260505052705 | 20 | 357 | 1.6 | 3.2 | 0.00 | 0.00 | 0.00 | 73 | 1010.1 |
| 20260505051803 | 20 | 340 | 1.6 | 4.8 | 0.00 | 0.00 | 0.00 | 75 | 1010.0 |
| 20260505050904 | 21 | 338 | 1.6 | 4.8 | 0.00 | 0.00 | 0.00 | 75 | 1009.9 |
| 20260505040905 | 22 | 16 | 1.6 | 4.8 | 0.00 | 0.00 | 0.00 | 74 | 1007.6 |
| 20260505040005 | 22 | 355 | 0.0 | 3.2 | 0.00 | 0.00 | 0.00 | 77 | 1007.5 |
| 20260505035405 | 22 | 348 | 0.0 | 3.2 | 0.00 | 0.00 | 0.00 | 80 | 1007.5 |
| 20260505034505 | 22 | 315 | 0.0 | 3.2 | 0.00 | 0.00 | 0.00 | 80 | 1007.2 |
| 20260505033605 | 22 | 318 | 0.0 | 3.2 | 0.00 | 0.00 | 0.00 | 80 | 1007.6 |
| 20260505032918 | 22 | 322 | 0.0 | 3.2 | 0.00 | 0.00 | 0.00 | 79 | 1007.5 |
| 20260505031803 | 21 | 316 | 1.6 | 6.4 | 0.00 | 0.00 | 0.00 | 79 | 1007.7 |
| 20260505031118 | 21 | 314 | 0.0 | 3.2 | 0.00 | 0.00 | 0.00 | 79 | 1007.4 |
| 20260505030005 | 21 | 320 | 0.0 | 3.2 | 0.00 | 0.00 | 0.00 | 78 | 1007.6 |
| 20260505025404 | 21 | 317 | 1.6 | 3.2 | 0.00 | 0.00 | 0.00 | 78 | 1007.6 |
| 20260505024503 | 21 | 318 | 1.6 | 4.8 | 0.00 | 0.00 | 0.00 | 78 | 1007.5 |
| 20260505023605 | 21 | 312 | 1.6 | 4.8 | 0.00 | 0.00 | 0.00 | 78 | 1007.8 |
| 20260505022705 | 21 | 319 | 1.6 | 4.8 | 0.00 | 0.00 | 0.00 | 78 | 1007.7 |
| 20260505021805 | 21 | 319 | 1.6 | 4.8 | 0.00 | 0.00 | 0.00 | 78 | 1007.6 |
| 20260505021118 | 21 | 312 | 1.6 | 4.8 | 0.00 | 0.00 | 0.00 | 78 | 1007.9 |
| 20260505020004 | 21 | 323 | 1.6 | 4.8 | 0.00 | 0.00 | 0.00 | 79 | 1007.9 |
| 20260505015405 | 21 | 318 | 1.6 | 6.4 | 0.00 | 0.00 | 0.00 | 79 | 1007.7 |
| 20260505014504 | 21 | 326 | 1.6 | 6.4 | 0.00 | 0.00 | 0.00 | 80 | 1007.8 |
| 20260505013605 | 21 | 314 | 1.6 | 4.8 | 0.00 | 0.00 | 0.00 | 80 | 1007.7 |
| 20260505012917 | 21 | 307 | 0.0 | 3.2 | 0.00 | 0.00 | 0.00 | 80 | 1007.8 |
| 20260505011805 | 21 | 315 | 0.0 | 1.6 | 0.00 | 0.00 | 0.00 | 81 | 1007.9 |
| 20260505011122 | 21 | 313 | 0.0 | 1.6 | 0.00 | 0.00 | 0.00 | 81 | 1007.6 |
| 20260505010005 | 21 | 312 | 0.0 | 3.2 | 0.00 | 0.00 | 0.00 | 81 | 1007.9 |
| 20260505005405 | 21 | 319 | 0.0 | 3.2 | 0.00 | 0.00 | 0.00 | 80 | 1008.2 |
| 20260505004504 | 21 | 301 | 0.0 | 3.2 | 0.00 | 0.00 | 0.00 | 80 | 1008.1 |
| 20260505003605 | 21 | 310 | 0.0 | 3.2 | 0.00 | 0.00 | 0.00 | 81 | 1008.4 |
| 20260505002703 | 21 | 317 | 0.0 | 3.2 | 0.00 | 0.00 | 0.00 | 81 | 1008.1 |
| 20260505001805 | 22 | 321 | 0.0 | 3.2 | 0.00 | 0.00 | 0.00 | 82 | 1007.7 |
| 20260505000905 | 22 | 321 | 0.0 | 1.6 | 0.00 | 0.00 | 0.00 | 82 | 1008.4 |
| 20260505000004 | 22 | 319 | 0.0 | 1.6 | 0.00 | 0.00 | 0.00 | 81 | 1008.6 |
| 20260504235405 | 22 | 0 | 0.0 | 0.0 | 0.00 | 0.00 | 0.00 | 81 | 1008.7 |
| 20260504234505 | 22 | 0 | 0.0 | 0.0 | 0.00 | 0.00 | 0.00 | 81 | 1008.8 |
| 20260504233819 | 22 | 264 | 0.0 | 1.6 | 0.00 | 0.00 | 0.00 | 81 | 1009.2 |
| 20260504232705 | 22 | 38 | 0.0 | 1.6 | 0.00 | 0.00 | 0.00 | 81 | 1009.3 |
| 20260504231804 | 22 | 347 | 1.6 | 4.8 | 0.00 | 0.00 | 0.00 | 80 | 1009.4 |
| 20260504230905 | 22 | 10 | 0.0 | 3.2 | 0.00 | 0.00 | 0.00 | 79 | 1008.9 |
| 20260504230005 | 22 | 324 | 0.0 | 3.2 | 0.00 | 0.00 | 0.00 | 78 | 1009.3 |
| 20260504225618 | 22 | 293 | 0.0 | 3.2 | 0.00 | 0.00 | 0.00 | 78 | 1009.3 |
| 20260504224505 | 22 | 40 | 0.0 | 3.2 | 0.00 | 0.00 | 0.00 | 77 | 1010.0 |
| 20260504223605 | 23 | 4 | 1.6 | 4.8 | 0.00 | 0.00 | 0.00 | 75 | 1010.0 |
| 20260504222920 | 23 | 5 | 1.6 | 4.8 | 0.00 | 0.00 | 0.00 | 75 | 1009.9 |
| 20260504221803 | 23 | 320 | 1.6 | 4.8 | 0.00 | 0.00 | 0.00 | 73 | 1010.1 |
| 20260504220904 | 23 | 348 | 1.6 | 9.7 | 0.00 | 0.00 | 0.00 | 72 | 1010.2 |
| 20260504220005 | 23 | 333 | 1.6 | 9.7 | 0.00 | 0.00 | 0.00 | 71 | 1010.4 |
| 20260504215405 | 23 | 348 | 1.6 | 6.4 | 0.00 | 0.00 | 0.00 | 70 | 1010.6 |
| 20260504214504 | 23 | 323 | 3.2 | 11.3 | 0.00 | 0.00 | 0.00 | 69 | 1010.2 |
| 20260504213603 | 23 | 333 | 3.2 | 22.5 | 0.00 | 0.00 | 0.00 | 67 | 1010.2 |
| 20260504212705 | 23 | 355 | 3.2 | 11.3 | 0.00 | 0.00 | 0.00 | 65 | 1010.4 |
| 20260504211805 | 23 | 340 | 4.8 | 20.9 | 0.00 | 0.00 | 0.00 | 62 | 1010.6 |
| 20260504210905 | 23 | 352 | 4.8 | 17.7 | 0.00 | 0.00 | 0.00 | 60 | 1010.5 |
| 20260504210219 | 23 | 342 | 4.8 | 16.1 | 0.00 | 0.00 | 0.00 | 58 | 1010.7 |
| 20260504205403 | 23 | 326 | 4.8 | 11.3 | 0.00 | 0.00 | 0.00 | 55 | 1010.7 |
| 20260504204505 | 23 | 335 | 3.2 | 12.9 | 0.00 | 0.00 | 0.00 | 55 | 1010.6 |
| 20260504203605 | 23 | 342 | 3.2 | 12.9 | 0.00 | 0.00 | 0.00 | 55 | 1010.5 |
| 20260504202705 | 23 | 347 | 3.2 | 9.7 | 0.00 | 0.00 | 0.00 | 54 | 1010.4 |
| 20260504201808 | 23 | 340 | 3.2 | 14.5 | 0.00 | 0.00 | 0.00 | 54 | 1009.9 |
| 20260504200903 | 23 | 60 | 1.6 | 4.8 | 0.00 | 0.00 | 0.00 | 54 | 1010.0 |
| 20260504200004 | 23 | 230 | 0.0 | 1.6 | 0.00 | 0.00 | 0.00 | 51 | 1009.0 |
| 20260504195403 | 24 | 165 | 1.6 | 6.4 | 0.00 | 0.00 | 0.00 | 55 | 1008.6 |
| 20260504194504 | 25 | 262 | 0.0 | 4.8 | 0.00 | 0.00 | 0.00 | 48 | 1008.1 |
| 20260504193603 | 25 | 318 | 0.0 | 1.6 | 0.00 | 0.00 | 0.00 | 51 | 1008.0 |
| 20260504192703 | 25 | 306 | 0.0 | 1.6 | 0.00 | 0.00 | 0.00 | 51 | 1007.8 |
| 20260504191804 | 25 | 293 | 0.0 | 1.6 | 0.00 | 0.00 | 0.00 | 51 | 1007.7 |
| 20260504191119 | 25 | 306 | 0.0 | 1.6 | 0.00 | 0.00 | 0.00 | 51 | 1007.4 |
| 20260504190004 | 25 | 303 | 0.0 | 1.6 | 0.00 | 0.00 | 0.00 | 53 | 1007.6 |
| 20260504185405 | 24 | 303 | 0.0 | 1.6 | 0.00 | 0.00 | 0.00 | 54 | 1007.4 |
| 20260504184505 | 24 | 305 | 0.0 | 1.6 | 0.00 | 0.00 | 0.00 | 55 | 1007.7 |
| 20260504183605 | 25 | 295 | 0.0 | 1.6 | 0.00 | 0.00 | 0.00 | 54 | 1007.9 |
| 20260504182703 | 25 | 306 | 0.0 | 1.6 | 0.00 | 0.00 | 0.00 | 54 | 1007.8 |
| 20260504181806 | 25 | 292 | 0.0 | 1.6 | 0.00 | 0.00 | 0.00 | 53 | 1007.9 |
| 20260504180905 | 25 | 290 | 0.0 | 1.6 | 0.00 | 0.00 | 0.00 | 53 | 1007.7 |
| 20260504180004 | 25 | 302 | 0.0 | 1.6 | 0.00 | 0.00 | 0.00 | 54 | 1007.8 |
| 20260504175405 | 25 | 314 | 0.0 | 3.2 | 0.00 | 0.00 | 0.00 | 54 | 1007.9 |
| 20260504174505 | 25 | 327 | 0.0 | 1.6 | 0.00 | 0.00 | 0.00 | 54 | 1007.9 |
| 20260504173605 | 25 | 313 | 0.0 | 3.2 | 0.00 | 0.00 | 0.00 | 53 | 1007.8 |
| 20260504172704 | 26 | 313 | 0.0 | 3.2 | 0.00 | 0.00 | 0.00 | 53 | 1007.9 |
| 20260504171804 | 26 | 317 | 1.6 | 3.2 | 0.00 | 0.00 | 0.00 | 52 | 1007.9 |
| 20260504171119 | 26 | 311 | 1.6 | 6.4 | 0.00 | 0.00 | 0.00 | 52 | 1007.8 |